4PS2 weather

Altoona Regional Health System-Bon Secours Cam Heliport
Altoona, Pennsylvania, United States

Public forecast

Using degrees Fahrenheit for public forecast. Weather courtesy of forecast.io.

Closest aviation weather report (METAR) to Altoona Regional Health System-Bon Secours Cam Heliport

Closest report is Altoona Blair County Airport, 13.0 nm (24.0 km) SSE. Retrieved 2019/12/05 17:53 UTC (1 hour ago):

KAOO 051753Z AUTO 29020G30KT 10SM OVC037 02/M05 A2991 RMK AO2 PK WND 28030/1751 SLP141 60002 T00171050 10022 21011 51002

Closest aviation forecast (TAF) to Altoona Regional Health System-Bon Secours Cam Heliport

Closest forecast is Altoona Blair County Airport, 13.0 nm (24.0 km) SSE. Retrieved 2019/12/05 18:45 UTC (27 minutes ago):

TAF KAOO 051743Z 0518/0618 29015G20KT P6SM BKN035 FM060000 28007KT P6SM SCT035 FM060600 23007KT P6SM BKN100 FM061500 26010KT P6SM BKN050